Aérodrome :
LOGIN :

S'inscrire | Disclaimer

   EN    FR    IT 

 










Légende :    VFR   VFR Marginal   IFR   IFR Intensif   IFR Très Intensif
Visi : 
Plafond : 
>= 8 km
>= 3000ft
5 à 8 km
1000 à 3000 ft
1500m à 5 km
500 à 1000 ft
800 à 1500m
200 à 500 ft
< 800m
< 200 ft
Symboles :   Orages  Brouillard  Fortes neiges  Fortes précipitations  Vent > 20 kt
SIGMETs :   Divers  Orages  Givrage  Turbulence  Onde Orograph.  Cendres Volcan.






- Altitude de l'aérodrome : 49 ft
- Code IATA : GLZ


EHGR - Gilze-Rijen Airbase

DERNIER METAR :
  • 150755Z AUTO 24012KT 9999 NCD 07/02 Q0996 BLU

METARs EXPIRÉS :
  • 150725Z AUTO 24012KT 210V270 9999 NCD 08/03 Q0995 BLU
  • 150655Z AUTO 23014G24KT 190V270 9999 FEW030 SCT035 BKN039 08/04 Q0994 BLU
  • 150625Z AUTO 23011KT 200V290 9999 FEW029 SCT032 BKN038 09/05 Q0993 BLU
  • 150555Z AUTO 24011KT 210V270 9999 FEW022 BKN097 OVC100 09/05 Q0992 BLU
  • 150525Z AUTO 24013G25KT 220V290 9999 FEW023 SCT085 OVC091 09/05 Q0991 BLU

Prévision TAF périmée.



MET'MAP, la Météo Aéronautique d'un coup d'oeil ! - Copyright ORBIFLY Décembre 2007 - Disclaimer

ORBIFLY MET'MAP TEAM :

Programmation & Développement : Alexandra Zaïnal
Sur une idée originale de : Baudouin d'Aumeries
Assistance à la programmation : Marc-Olivier Méhu
Soutien technique & logistique : Manuel Goepfert

Contact : metmap@orbifly.com




SOURCES & CREDITS :

   NOAA